Time;durP1;ratioP1;P1;durP2;ratioP2;P2;SDS_P1;SDS_P2;PMS_P1;PMS_P2;Temp;Humidity;BMP_temperature;BMP_pressure;BME280_temperature;BME280_humidity;BME280_pressure;Samples;Min_cycle;Max_cycle;Signal;HPM_P1;HPM_P2
2022/06/07 00:01:21;;;;;;;6.57;2.43;;;;;;;22.04;74.26;98944.72;5054327;28;20212;-85
2022/06/07 00:03:47;;;;;;;4.33;2.50;;;;;;;21.98;73.79;98944.53;5053328;28;20588;-85
2022/06/07 00:06:12;;;;;;;4.47;2.10;;;;;;;21.96;73.51;98941.16;5054514;28;20636;-85
2022/06/07 00:08:38;;;;;;;5.57;1.97;;;;;;;21.95;73.45;98940.34;5054213;28;20253;-85
2022/06/07 00:11:04;;;;;;;3.23;1.83;;;;;;;21.91;72.66;98951.47;5069828;28;20174;-85
2022/06/07 00:13:29;;;;;;;4.53;1.90;;;;;;;21.89;72.00;98950.81;5054291;28;20544;-85
2022/06/07 00:15:55;;;;;;;4.83;2.00;;;;;;;21.88;71.29;98944.63;5054048;28;20169;-85
2022/06/07 00:18:21;;;;;;;2.67;1.50;;;;;;;21.81;71.37;98948.03;5069694;28;20250;-85
2022/06/07 00:20:46;;;;;;;3.63;1.90;;;;;;;21.84;71.32;98945.06;5053949;28;20733;-85
2022/06/07 00:23:17;;;;;;;4.03;2.00;;;;;;;21.84;71.10;98939.72;5052967;28;20649;-85
2022/06/07 00:25:45;;;;;;;6.40;1.90;;;;;;;21.83;70.39;98930.88;5054169;28;20223;-85
2022/06/07 00:28:11;;;;;;;2.93;1.50;;;;;;;21.74;71.03;98925.66;5053795;28;20205;-85
2022/06/07 00:30:37;;;;;;;3.07;1.73;;;;;;;21.61;71.51;98926.06;5054125;28;20620;-84
2022/06/07 00:33:03;;;;;;;7.83;2.50;;;;;;;21.61;71.41;98927.88;5053921;28;20170;-84
2022/06/07 00:35:29;;;;;;;4.13;1.97;;;;;;;21.64;71.15;98920.44;5053990;28;20174;-84
2022/06/07 00:37:54;;;;;;;4.57;2.10;;;;;;;21.56;70.99;98924.84;5053918;28;20186;-84
2022/06/07 00:40:20;;;;;;;2.43;1.67;;;;;;;21.58;70.69;98920.19;5053600;28;20177;-84
2022/06/07 00:42:46;;;;;;;3.07;1.67;;;;;;;21.49;71.06;98931.81;5053875;28;20592;-84
2022/06/07 00:45:15;;;;;;;3.30;2.07;;;;;;;21.41;72.23;98935.22;5052568;28;20623;-84
2022/06/07 00:47:42;;;;;;;7.07;2.23;;;;;;;21.30;73.37;98936.28;5053689;28;20177;-84
2022/06/07 00:50:20;;;;;;;4.40;1.97;;;;;;;21.32;73.75;98939.66;5053451;28;20681;-85
2022/06/07 00:52:45;;;;;;;6.37;2.23;;;;;;;21.34;73.74;98940.34;5069212;28;20252;-85
2022/06/07 00:55:11;;;;;;;23.57;2.63;;;;;;;21.36;73.75;98933.00;5069006;28;20212;-85
2022/06/07 00:57:37;;;;;;;3.83;2.30;;;;;;;21.33;74.29;98935.97;5053588;28;20251;-85
2022/06/07 01:00:08;;;;;;;3.53;2.20;;;;;;;21.30;75.04;98933.63;5053340;28;20178;-85
2022/06/07 01:02:33;;;;;;;4.13;2.03;;;;;;;21.29;75.59;98937.28;5068986;28;20188;-85
2022/06/07 01:05:00;;;;;;;3.70;2.30;;;;;;;21.28;76.03;98940.94;5068980;28;20177;-85
2022/06/07 01:12:53;;;;;;;4.83;2.63;;;;;;;21.32;76.07;98934.31;5053800;28;20173;-85
2022/06/07 01:15:18;;;;;;;4.50;2.50;;;;;;;21.29;76.13;98939.97;5052532;28;20166;-85
2022/06/07 01:17:44;;;;;;;4.97;2.70;;;;;;;21.24;76.13;98934.25;5052776;28;20197;-85
2022/06/07 01:20:10;;;;;;;4.47;2.47;;;;;;;21.23;76.33;98945.91;5053172;28;20557;-85
2022/06/07 01:22:36;;;;;;;3.93;2.47;;;;;;;21.21;76.09;98945.22;5053109;28;20188;-85
2022/06/07 01:25:02;;;;;;;5.73;3.10;;;;;;;21.24;76.25;98938.75;5068791;28;20666;-85
2022/06/07 01:27:27;;;;;;;4.50;2.70;;;;;;;21.22;76.01;98936.25;5053083;28;20170;-85
2022/06/07 01:29:52;;;;;;;4.53;2.80;;;;;;;21.21;75.91;98934.56;5052087;28;20646;-85
2022/06/07 01:32:18;;;;;;;7.03;2.83;;;;;;;21.19;76.18;98931.22;5053023;28;20174;-85
2022/06/07 01:34:45;;;;;;;5.93;2.90;;;;;;;21.22;75.91;98930.06;5052997;28;20212;-85
2022/06/07 01:37:13;;;;;;;4.60;2.60;;;;;;;21.19;75.76;98935.69;5052869;28;20677;-85
2022/06/07 01:42:24;;;;;;;5.50;3.70;;;;;;;21.19;75.72;98935.69;5053476;28;20228;-85
2022/06/07 01:44:50;;;;;;;6.80;2.57;;;;;;;21.13;75.91;98929.13;5051862;28;20564;-85
2022/06/07 01:47:25;;;;;;;5.57;3.00;;;;;;;21.12;75.83;98937.31;5053187;28;20209;-85
2022/06/07 01:49:51;;;;;;;5.77;3.50;;;;;;;21.10;75.95;98937.44;5053169;28;20166;-85
2022/06/07 01:52:20;;;;;;;6.43;2.73;;;;;;;21.09;76.18;98935.78;5068589;28;20204;-85
2022/06/07 01:54:46;;;;;;;4.83;2.80;;;;;;;21.06;76.28;98937.88;5052814;28;20706;-85
2022/06/07 01:57:12;;;;;;;4.17;2.70;;;;;;;21.06;76.18;98941.41;5069054;28;20217;-85
2022/06/07 01:59:38;;;;;;;5.63;3.17;;;;;;;21.04;76.06;98939.84;5068535;28;20170;-85
2022/06/07 02:02:05;;;;;;;6.13;2.67;;;;;;;20.97;75.87;98942.25;5051779;28;20199;-85
2022/06/07 02:04:31;;;;;;;3.60;2.00;;;;;;;20.94;75.71;98945.22;5052595;28;20563;-85
2022/06/07 02:06:57;;;;;;;4.73;2.77;;;;;;;20.93;75.82;98943.56;5051740;28;20188;-85
2022/06/07 02:09:22;;;;;;;4.07;2.37;;;;;;;20.96;75.40;98945.09;5068939;28;20189;-85
2022/06/07 02:11:48;;;;;;;5.20;3.03;;;;;;;20.94;75.27;98942.56;5052603;28;20688;-85
2022/06/07 02:14:14;;;;;;;7.73;3.17;;;;;;;20.91;75.33;98937.53;5051646;28;20627;-86
2022/06/07 02:16:39;;;;;;;8.17;2.60;;;;;;;20.94;74.87;98939.91;5052621;28;20180;-85
2022/06/07 02:19:05;;;;;;;6.07;2.93;;;;;;;20.91;75.23;98942.03;5052563;28;20204;-86
2022/06/07 02:21:32;;;;;;;3.50;2.10;;;;;;;20.91;75.17;98944.72;5052542;28;20174;-86
2022/06/07 02:23:57;;;;;;;4.73;2.27;;;;;;;20.92;75.00;98960.53;5052465;28;20283;-85
2022/06/07 02:26:32;;;;;;;9.00;3.00;;;;;;;20.91;74.82;98950.84;5052505;28;20645;-86
2022/06/07 02:29:05;;;;;;;4.60;2.27;;;;;;;20.90;74.66;98949.19;5068479;28;20161;-86
2022/06/07 02:31:32;;;;;;;3.87;2.03;;;;;;;20.83;74.71;98948.13;5055691;28;20672;-85
2022/06/07 02:33:59;;;;;;;4.10;2.40;;;;;;;20.74;74.95;98949.84;5055991;28;20235;-86
2022/06/07 02:36:27;;;;;;;5.17;2.50;;;;;;;20.75;74.91;98945.38;5071702;28;20174;-86
2022/06/07 02:38:52;;;;;;;4.53;2.10;;;;;;;20.74;74.56;98949.00;5055882;28;20184;-85
2022/06/07 02:41:23;;;;;;;4.67;2.43;;;;;;;20.72;74.13;98949.16;5056146;28;20292;-86
2022/06/07 02:43:48;;;;;;;3.87;2.27;;;;;;;20.72;73.73;98956.31;5072069;28;20197;-86
2022/06/07 02:46:14;;;;;;;5.37;1.93;;;;;;;20.73;73.19;98945.50;5056014;28;20185;-85
2022/06/07 02:48:40;;;;;;;4.30;2.53;;;;;;;20.73;73.13;98950.81;5071767;28;20192;-85
2022/06/07 02:51:06;;;;;;;5.03;1.90;;;;;;;20.73;72.46;98947.31;5054717;28;20181;-85
2022/06/07 02:53:32;;;;;;;3.13;1.77;;;;;;;20.68;71.83;98955.75;5055603;28;20177;-85
2022/06/07 02:55:57;;;;;;;6.23;1.50;;;;;;;20.68;71.11;98947.78;5071349;28;20184;-85
2022/06/07 02:58:24;;;;;;;3.47;2.17;;;;;;;20.63;70.56;98952.72;5055438;28;20694;-85
2022/06/07 03:00:49;;;;;;;6.30;1.57;;;;;;;20.59;70.86;98947.84;5055332;28;20178;-86
2022/06/07 03:03:15;;;;;;;2.63;1.40;;;;;;;20.61;70.36;98951.19;5048123;28;20193;-85
2022/06/07 03:05:41;;;;;;;3.20;1.70;;;;;;;20.62;69.54;98947.53;5044873;28;20239;-86
2022/06/07 03:08:07;;;;;;;4.47;1.57;;;;;;;20.61;69.71;98952.03;5049625;28;20181;-85
2022/06/07 03:10:33;;;;;;;2.20;1.37;;;;;;;20.59;69.38;98954.00;5055326;28;20626;-85
2022/06/07 03:12:58;;;;;;;3.23;1.73;;;;;;;20.53;69.62;98959.91;5055314;28;20178;-86
2022/06/07 03:15:23;;;;;;;3.17;1.80;;;;;;;20.56;69.54;98956.97;5055510;28;20270;-85
2022/06/07 03:17:49;;;;;;;2.83;1.30;;;;;;;20.61;69.57;98964.50;5054235;28;20174;-86
2022/06/07 03:20:15;;;;;;;2.50;1.63;;;;;;;20.52;69.43;98960.06;5053606;28;20183;-86
2022/06/07 03:22:41;;;;;;;2.83;1.40;;;;;;;20.54;69.71;98958.94;5052354;28;20189;-86
2022/06/07 03:25:07;;;;;;;3.23;1.90;;;;;;;20.55;69.54;98962.41;5035031;28;20194;-86
2022/06/07 03:27:37;;;;;;;3.63;1.70;;;;;;;20.59;68.74;98959.34;5035382;28;20175;-86
2022/06/07 03:30:06;;;;;;;3.67;1.50;;;;;;;20.63;68.09;98959.84;5034429;28;20174;-86
2022/06/07 03:32:33;;;;;;;3.37;1.30;;;;;;;20.64;67.24;98956.22;5035571;28;20676;-86
2022/06/07 03:34:58;;;;;;;3.17;1.03;;;;;;;20.64;66.91;98956.22;5050913;28;20181;-86
2022/06/07 03:37:24;;;;;;;3.17;1.40;;;;;;;20.63;66.46;98960.69;5034956;28;20196;-85
2022/06/07 03:39:50;;;;;;;3.93;1.50;;;;;;;20.69;66.40;98964.59;5033624;28;20203;-85
2022/06/07 03:42:16;;;;;;;5.00;0.90;;;;;;;20.78;65.77;98969.00;5059378;28;20185;-85
2022/06/07 03:44:45;;;;;;;2.87;1.40;;;;;;;20.80;65.49;98959.06;5033116;28;20275;-85
2022/06/07 03:47:10;;;;;;;4.27;1.30;;;;;;;20.81;64.68;98963.41;5033016;28;20178;-85
2022/06/07 03:49:36;;;;;;;1.63;1.07;;;;;;;20.90;64.84;98967.84;5034461;28;20188;-85
2022/06/07 03:52:02;;;;;;;3.13;1.30;;;;;;;20.90;65.65;98967.84;5034170;28;20252;-85
2022/06/07 03:54:28;;;;;;;3.37;1.60;;;;;;;20.95;65.67;98968.22;5034145;28;20194;-85
2022/06/07 03:56:53;;;;;;;6.30;1.40;;;;;;;21.03;66.16;98968.31;5049530;28;20228;-85
2022/06/07 03:59:19;;;;;;;1.53;0.90;;;;;;;21.15;65.96;98975.13;5032739;28;20260;-85
2022/06/07 04:01:44;;;;;;;7.00;1.83;;;;;;;21.23;65.62;98974.38;5034438;28;20711;-85
2022/06/07 04:04:11;;;;;;;2.07;1.17;;;;;;;21.26;65.57;98968.75;5034846;28;20198;-85
2022/06/07 04:09:30;;;;;;;3.80;1.30;;;;;;;21.18;64.49;98977.50;5034868;28;20201;-86
2022/06/07 04:11:55;;;;;;;2.33;1.20;;;;;;;21.08;65.17;98979.41;5034204;28;20594;-86
2022/06/07 04:14:21;;;;;;;2.67;1.27;;;;;;;21.01;63.50;98980.97;5033220;28;20262;-86
2022/06/07 04:16:46;;;;;;;5.60;1.20;;;;;;;21.09;63.85;98981.09;5049785;28;20646;-86
2022/06/07 04:19:12;;;;;;;4.23;1.30;;;;;;;21.10;62.71;98984.56;5049989;28;20235;-85
2022/06/07 04:21:37;;;;;;;1.43;0.90;;;;;;;21.11;63.23;98981.78;5034051;28;20181;-85
2022/06/07 04:24:03;;;;;;;2.67;1.10;;;;;;;21.18;62.90;98982.84;5033917;28;20659;-85
2022/06/07 04:26:28;;;;;;;1.63;0.90;;;;;;;21.28;61.43;98988.94;5033337;28;20336;-85
2022/06/07 04:28:56;;;;;;;2.17;0.80;;;;;;;21.25;60.37;98983.91;5033879;28;20174;-86
2022/06/07 04:31:23;;;;;;;2.60;1.30;;;;;;;21.24;61.07;98982.25;5049490;28;20223;-85
2022/06/07 04:33:49;;;;;;;1.93;0.93;;;;;;;21.32;60.91;98982.31;5049523;28;20177;-86
2022/06/07 04:36:21;;;;;;;2.43;1.37;;;;;;;21.38;60.95;98984.34;5033830;28;20174;-85
2022/06/07 04:38:48;;;;;;;1.90;1.00;;;;;;;21.47;59.73;98971.94;5049448;28;20186;-85
2022/06/07 04:41:15;;;;;;;4.37;1.20;;;;;;;21.58;59.96;98976.22;5049393;28;20178;-85
2022/06/07 04:43:41;;;;;;;2.77;1.10;;;;;;;21.60;61.42;98979.56;5033652;28;20780;-85
2022/06/07 04:46:10;;;;;;;1.83;1.10;;;;;;;21.68;60.75;98985.81;5032725;28;20667;-85
2022/06/07 04:48:37;;;;;;;2.27;0.97;;;;;;;21.73;61.12;98978.16;5033590;28;20597;-85
2022/06/07 04:51:05;;;;;;;2.40;1.27;;;;;;;21.86;61.27;98985.81;5033597;28;20236;-85
2022/06/07 04:53:31;;;;;;;2.90;1.20;;;;;;;21.91;60.70;98995.00;5031961;28;20185;-85
2022/06/07 04:55:58;;;;;;;2.00;1.07;;;;;;;22.03;60.08;98995.63;5050297;28;20261;-85
2022/06/07 04:58:23;;;;;;;3.20;1.00;;;;;;;22.09;60.13;98994.97;5048966;28;20680;-85
2022/06/07 05:00:49;;;;;;;8.17;1.10;;;;;;;22.23;58.01;98996.22;5033728;28;20162;-85
2022/06/07 05:03:14;;;;;;;1.77;0.80;;;;;;;22.33;56.69;99000.47;5033605;28;20539;-85
2022/06/07 05:05:40;;;;;;;7.17;3.03;;;;;;;22.40;56.75;99009.56;5033944;28;20206;-85
2022/06/07 05:08:05;;;;;;;2.70;1.50;;;;;;;22.37;55.38;99009.84;5033335;28;20189;-85
2022/06/07 05:10:31;;;;;;;4.43;1.10;;;;;;;22.43;56.06;99014.56;5033330;28;20178;-85
2022/06/07 05:12:56;;;;;;;13.33;4.33;;;;;;;22.61;56.93;99011.81;5049762;28;20189;-85
2022/06/07 05:15:22;;;;;;;2.83;1.37;;;;;;;22.74;56.11;99014.09;5033843;28;20197;-85
2022/06/07 05:17:47;;;;;;;1.77;0.93;;;;;;;22.88;54.56;99016.13;5033265;28;20595;-85
2022/06/07 05:20:13;;;;;;;2.40;1.23;;;;;;;22.96;53.95;99016.16;5033246;28;20544;-86
2022/06/07 05:22:39;;;;;;;7.07;1.10;;;;;;;22.96;53.19;99010.81;5033220;28;20536;-85
2022/06/07 05:25:05;;;;;;;6.07;1.37;;;;;;;22.97;53.67;99017.84;5032424;28;20267;-86
2022/06/07 05:27:38;;;;;;;2.53;0.87;;;;;;;22.83;52.13;99008.59;5048813;28;20186;-86
2022/06/07 05:30:05;;;;;;;2.30;0.80;;;;;;;22.92;50.63;99014.81;5033442;28;20170;-86
2022/06/07 05:32:30;;;;;;;1.77;1.03;;;;;;;23.09;51.87;99017.38;5048718;28;20178;-86
2022/06/07 05:34:55;;;;;;;2.17;0.93;;;;;;;23.41;51.88;99008.63;5033022;28;20185;-85
2022/06/07 05:37:22;;;;;;;2.20;1.07;;;;;;;23.84;52.43;99008.34;5033332;28;20171;-86
2022/06/07 05:39:48;;;;;;;3.47;1.00;;;;;;;24.19;51.61;99017.03;5033058;28;20202;-86
2022/06/07 05:42:16;;;;;;;2.07;1.23;;;;;;;24.56;50.73;99022.66;5048656;28;20170;-85
2022/06/07 05:44:42;;;;;;;1.67;0.80;;;;;;;24.51;48.68;99011.63;5048530;28;20279;-86
2022/06/07 05:47:08;;;;;;;1.87;0.80;;;;;;;24.45;47.71;99006.94;5032970;28;20186;-86
2022/06/07 05:49:34;;;;;;;1.47;0.70;;;;;;;24.35;47.73;99017.84;5033215;28;20183;-86
2022/06/07 05:52:03;;;;;;;1.67;0.70;;;;;;;24.29;48.17;99013.16;5032292;28;20189;-85
2022/06/07 05:54:30;;;;;;;1.30;0.90;;;;;;;24.20;49.01;99013.38;5048796;28;20175;-86
2022/06/07 05:56:55;;;;;;;1.47;0.70;;;;;;;24.17;48.91;99016.38;5032960;28;20190;-85
2022/06/07 05:59:21;;;;;;;1.60;0.70;;;;;;;23.90;48.08;99022.88;5048557;28;20174;-85
2022/06/07 06:01:46;;;;;;;3.17;1.10;;;;;;;23.80;49.53;99020.38;5031891;28;20174;-86
2022/06/07 06:04:12;;;;;;;1.50;0.80;;;;;;;23.62;49.84;99024.22;5050602;28;20229;-85
2022/06/07 06:06:37;;;;;;;1.83;1.07;;;;;;;23.59;51.38;99020.03;5036875;28;20186;-86
2022/06/07 06:11:49;;;;;;;1.33;0.83;;;;;;;23.69;51.03;99019.88;5037078;28;20189;-85
2022/06/07 06:14:15;;;;;;;2.90;0.87;;;;;;;23.88;52.15;99008.84;5036730;28;20626;-86
2022/06/07 06:16:40;;;;;;;2.07;0.90;;;;;;;24.39;50.45;99019.22;5036390;28;20174;-85
2022/06/07 06:19:06;;;;;;;1.63;0.80;;;;;;;24.80;49.05;98998.50;5036341;28;20578;-86
2022/06/07 06:21:38;;;;;;;2.03;0.80;;;;;;;25.11;48.55;99006.53;5036326;28;20214;-85
2022/06/07 06:24:04;;;;;;;2.33;1.07;;;;;;;25.24;45.79;99003.28;5036516;28;20190;-85
2022/06/07 06:26:30;;;;;;;2.17;0.83;;;;;;;25.50;45.05;99003.81;5036241;28;20240;-86
2022/06/07 06:28:56;;;;;;;1.20;1.00;;;;;;;25.61;43.82;99001.56;5036441;28;20186;-86
2022/06/07 06:31:22;;;;;;;1.43;0.63;;;;;;;26.04;45.52;99004.56;5036405;28;20604;-86
2022/06/07 06:33:50;;;;;;;1.50;0.87;;;;;;;26.26;42.25;99000.22;5051783;28;20208;-86
2022/06/07 06:36:19;;;;;;;2.07;0.80;;;;;;;26.34;43.72;99005.47;5052016;28;20259;-85
2022/06/07 06:38:44;;;;;;;1.23;0.60;;;;;;;26.40;44.10;99002.06;5051659;28;20178;-86
2022/06/07 06:41:31;;;;;;;1.80;0.90;;;;;;;26.57;42.11;99003.56;5035999;28;20609;-86
2022/06/07 06:44:00;;;;;;;1.58;0.75;;;;;;;26.88;42.22;98998.00;5052316;28;20306;-85
2022/06/07 06:46:39;;;;;;;1.13;0.70;;;;;;;26.94;42.65;98995.38;5035832;28;20205;-86
2022/06/07 06:49:05;;;;;;;1.47;0.80;;;;;;;26.75;41.22;99007.56;5036150;28;20158;-86
2022/06/07 06:51:31;;;;;;;1.13;0.67;;;;;;;26.64;42.43;99001.78;5051721;28;20193;-86
2022/06/07 06:54:01;;;;;;;1.30;0.80;;;;;;;26.56;43.33;99000.03;5051630;28;20182;-87
2022/06/07 06:56:31;;;;;;;1.97;0.63;;;;;;;26.36;43.38;99000.78;5051562;28;20178;-86
2022/06/07 06:58:57;;;;;;;4.40;1.10;;;;;;;26.23;44.11;98996.03;5051164;28;20293;-86
2022/06/07 07:01:29;;;;;;;1.07;0.70;;;;;;;26.29;44.80;98997.13;5052048;28;20182;-87
2022/06/07 07:03:56;;;;;;;1.77;0.97;;;;;;;26.16;44.35;98997.75;5035755;28;20536;-87
2022/06/07 07:06:22;;;;;;;1.83;1.20;;;;;;;26.05;44.45;98992.78;5051487;28;20568;-87
2022/06/07 07:08:49;;;;;;;1.47;0.80;;;;;;;25.85;44.73;98997.84;5051409;28;20174;-87
2022/06/07 07:11:17;;;;;;;5.17;1.77;;;;;;;25.82;46.58;98995.53;5035408;28;20179;-87
2022/06/07 07:13:44;;;;;;;1.60;0.73;;;;;;;25.76;45.71;98998.13;5051314;28;20235;-87
2022/06/07 07:16:13;;;;;;;3.67;0.88;;;;;;;25.78;46.24;98991.53;5034881;28;20186;-87
2022/06/07 07:18:39;;;;;;;3.83;1.00;;;;;;;26.02;47.10;98985.94;5035209;28;20552;-87
2022/06/07 07:21:07;;;;;;;6.43;0.80;;;;;;;26.11;45.98;98982.16;5035180;28;20178;-87
2022/06/07 07:23:33;;;;;;;1.23;0.70;;;;;;;26.42;46.00;98981.19;5035892;28;20205;-87
2022/06/07 07:26:07;;;;;;;1.60;0.73;;;;;;;26.71;45.71;98981.19;5051067;28;20251;-87
2022/06/07 07:28:34;;;;;;;2.00;1.03;;;;;;;26.88;42.27;98977.34;5035592;28;20179;-87
2022/06/07 07:31:03;;;;;;;1.85;0.80;;;;;;;27.12;44.27;98970.78;5035521;28;20253;-87
2022/06/07 07:33:28;;;;;;;1.42;0.80;;;;;;;27.22;40.87;98976.69;5035241;28;20236;-86
2022/06/07 07:35:55;;;;;;;0.85;0.65;;;;;;;27.26;41.48;98973.44;5034900;28;20580;-87
2022/06/07 07:38:21;;;;;;;1.35;0.85;;;;;;;27.28;42.81;98965.19;5050793;28;20209;-87
2022/06/07 07:40:46;;;;;;;2.60;0.90;;;;;;;27.53;42.65;98969.19;5050809;28;20185;-87
2022/06/07 07:43:12;;;;;;;2.20;0.80;;;;;;;27.59;41.38;98972.97;5050402;28;20182;-87
2022/06/07 07:45:38;;;;;;;1.58;0.60;;;;;;;27.50;41.84;98971.41;5035207;28;20248;-88
2022/06/07 07:48:04;;;;;;;2.15;0.90;;;;;;;27.64;40.60;98973.22;5034923;28;20203;-88
2022/06/07 07:50:29;;;;;;;1.88;0.60;;;;;;;27.78;41.12;98972.28;5034637;28;20253;-88
2022/06/07 07:52:58;;;;;;;1.95;0.90;;;;;;;27.80;40.25;98971.09;5034607;28;20240;-88
2022/06/07 07:55:24;;;;;;;1.02;0.60;;;;;;;27.96;39.62;98964.59;5034770;28;20177;-88
2022/06/07 07:57:49;;;;;;;1.23;0.63;;;;;;;28.02;39.37;98969.22;5034380;28;20190;-88
2022/06/07 08:00:15;;;;;;;1.63;0.85;;;;;;;27.96;39.30;98961.91;5034691;28;20174;-88
2022/06/07 08:02:40;;;;;;;1.30;0.75;;;;;;;28.04;40.68;98964.47;5033448;28;20239;-88
2022/06/07 08:05:06;;;;;;;1.90;0.77;;;;;;;27.89;39.23;98963.69;5034256;28;20208;-88
2022/06/07 08:07:32;;;;;;;1.42;0.70;;;;;;;27.84;39.84;98963.44;5034565;28;20531;-88
2022/06/07 08:10:00;;;;;;;1.02;0.60;;;;;;;28.18;38.34;98957.31;5034287;28;20174;-88
2022/06/07 08:12:27;;;;;;;3.42;0.80;;;;;;;28.55;38.93;98951.53;5034187;28;20178;-89
2022/06/07 08:14:52;;;;;;;1.40;0.70;;;;;;;28.87;39.08;98944.66;5034175;28;20208;-88
2022/06/07 08:17:18;;;;;;;2.78;1.17;;;;;;;29.10;38.25;98945.16;5034660;28;20184;-88
2022/06/07 08:19:43;;;;;;;1.55;0.80;;;;;;;29.44;37.61;98941.50;5034048;28;20593;-89
2022/06/07 08:22:09;;;;;;;0.98;0.47;;;;;;;29.66;37.36;98938.44;5034050;28;20304;-89
2022/06/07 08:24:35;;;;;;;3.95;0.77;;;;;;;30.02;37.94;98934.50;5033900;28;20264;-89
2022/06/07 08:27:01;;;;;;;1.75;0.82;;;;;;;29.92;37.52;98932.22;5033015;28;20227;-89
2022/06/07 08:29:26;;;;;;;2.13;0.80;;;;;;;30.00;37.76;98934.72;5034164;28;20627;-89
2022/06/07 08:31:52;;;;;;;1.58;0.70;;;;;;;30.17;37.51;98938.63;5034107;28;20246;-89
2022/06/07 08:39:45;;;;;;;0.95;0.52;;;;;;;30.25;37.26;98929.47;5034048;28;20228;-90
2022/06/07 08:42:41;;;;;;;3.15;0.90;;;;;;;30.22;37.36;98919.91;5032761;28;20206;-90
2022/06/07 08:45:16;;;;;;;2.83;0.77;;;;;;;30.20;40.48;98924.69;5032553;28;20593;-90
2022/06/07 08:47:44;;;;;;;5.05;0.60;;;;;;;30.31;36.16;98920.53;5034246;28;20170;-91
2022/06/07 08:50:16;;;;;;;1.92;0.77;;;;;;;30.18;37.50;98925.97;5033600;28;20197;-89
2022/06/07 08:52:42;;;;;;;2.55;0.93;;;;;;;30.04;38.53;98924.31;5033758;28;20186;-90
2022/06/07 08:55:14;;;;;;;1.45;0.50;;;;;;;30.20;37.79;98919.28;5034070;28;20524;-90
2022/06/07 08:57:40;;;;;;;3.35;0.80;;;;;;;30.35;38.64;98909.09;5049193;28;20198;-91
2022/06/07 09:00:20;;;;;;;1.10;0.60;;;;;;;30.56;37.45;98910.69;5049597;28;20186;-91
2022/06/07 09:03:06;;;;;;;1.60;0.90;;;;;;;30.88;38.94;98901.59;5033974;28;20186;-91
2022/06/07 09:05:32;;;;;;;0.90;0.50;;;;;;;30.99;36.30;98902.81;5033676;28;20198;-91
2022/06/07 09:07:58;;;;;;;3.05;0.90;;;;;;;31.06;33.91;98897.38;5049015;28;20190;-90
2022/06/07 09:13:20;;;;;;;1.42;0.63;;;;;;;30.93;35.29;98893.69;5033868;28;20173;-91
2022/06/07 09:15:48;;;;;;;1.48;0.77;;;;;;;31.08;35.40;98889.88;5048951;28;20217;-89
2022/06/07 09:18:17;;;;;;;1.02;0.55;;;;;;;31.23;34.19;98895.81;5033197;28;20170;-90
2022/06/07 09:20:51;;;;;;;1.30;0.60;;;;;;;31.02;34.72;98881.56;5033405;28;20178;-90
2022/06/07 09:23:16;;;;;;;1.35;0.80;;;;;;;31.27;34.56;98878.91;5033258;28;20179;-90
2022/06/07 09:25:48;;;;;;;2.08;0.68;;;;;;;31.39;34.92;98879.88;5049037;28;20225;-92
2022/06/07 09:28:18;;;;;;;1.70;0.70;;;;;;;31.55;34.99;98886.66;5048876;28;20200;-90
2022/06/07 09:31:01;;;;;;;0.80;0.60;;;;;;;31.81;34.21;98874.75;5048871;28;20182;-91
2022/06/07 09:33:33;;;;;;;0.98;0.50;;;;;;;32.02;36.20;98875.19;5032360;28;20182;-91
2022/06/07 09:36:38;;;;;;;4.35;0.93;;;;;;;31.66;33.70;98872.38;5033074;28;20183;-91
2022/06/07 09:39:32;;;;;;;1.35;0.70;;;;;;;31.68;34.84;98864.88;5034479;28;20194;-91
2022/06/07 09:42:19;;;;;;;3.42;0.77;;;;;;;31.45;34.43;98870.00;5037661;28;20163;-91
2022/06/07 09:44:57;;;;;;;3.42;0.60;;;;;;;31.52;33.72;98870.84;5052677;28;20677;-92
2022/06/07 09:47:27;;;;;;;3.55;0.93;;;;;;;31.56;33.89;98867.47;5037194;28;20280;-90
2022/06/07 09:50:31;;;;;;;2.10;0.50;;;;;;;31.73;36.80;98853.34;5037377;28;20165;-93
2022/06/07 09:53:08;;;;;;;12.73;1.50;;;;;;;31.83;33.64;98851.78;5035937;28;20201;-90
2022/06/07 09:55:56;;;;;;;1.27;0.57;;;;;;;31.85;33.96;98830.69;5037093;28;20237;-90
2022/06/07 09:59:03;;;;;;;1.98;1.02;;;;;;;31.53;34.36;98838.09;5036625;28;20226;-91
2022/06/07 10:02:30;;;;;;;;;;;;;;;;;;;;;
2022/06/07 10:05:04;;;;;;;1.35;0.60;;;;;;;31.42;33.91;98816.28;5003866;28;20221;-90
2022/06/07 10:07:41;;;;;;;2.47;0.73;;;;;;;31.21;34.69;98827.50;5036784;28;20174;-91
2022/06/07 10:17:20;;;;;;;1.23;0.73;;;;;;;31.21;34.06;98803.13;4975990;28;20304;-91
2022/06/07 10:20:33;;;;;;;;;;;;;;;;;;;;;
2022/06/07 10:23:09;;;;;;;1.48;0.52;;;;;;;31.40;32.66;98800.25;5038842;28;20185;-91
2022/06/07 10:25:59;;;;;;;4.10;0.70;;;;;;;31.41;34.02;98791.06;5036837;28;20277;-91
2022/06/07 10:28:57;;;;;;;1.98;0.70;;;;;;;31.47;32.88;98798.31;5036542;28;20257;-92
2022/06/07 10:31:51;;;;;;;1.17;0.70;;;;;;;31.46;32.48;98795.84;5055331;28;20178;-91
2022/06/07 10:34:40;;;;;;;0.90;0.50;;;;;;;31.51;31.84;98790.59;5023094;28;20201;-91
2022/06/07 10:40:59;;;;;;;1.58;0.93;;;;;;;31.66;33.39;98780.22;5014847;28;20194;-91
2022/06/07 10:43:52;;;;;;;0.95;0.55;;;;;;;31.12;33.66;98790.91;5014785;28;20186;-92
2022/06/07 10:46:30;;;;;;;1.48;0.57;;;;;;;30.84;34.41;98784.00;5014672;28;20533;-91
2022/06/07 10:59:39;;;;;;;1.30;0.68;;;;;;;31.05;33.50;98768.47;4937594;29;20713;-91
2022/06/07 11:02:59;;;;;;;3.33;0.57;;;;;;;31.11;35.37;98775.69;4862829;29;20239;-92
2022/06/07 11:09:22;;;;;;;4.80;1.52;;;;;;;30.82;32.79;98766.28;4936995;29;20250;-93
2022/06/07 11:12:53;;;;;;;1.20;0.60;;;;;;;30.65;36.00;98768.72;4920674;29;20194;-92
2022/06/07 11:23:07;;;;;;;;;;;;;;;;;;;;;
2022/06/07 11:33:54;;;;;;;0.90;0.57;;;;;;;31.35;33.22;98739.66;5872191;22;20251;-91
2022/06/07 11:44:35;;;;;;;;;;;;;;;;;;;;;
2022/06/07 11:47:27;;;;;;;1.58;0.60;;;;;;;31.47;32.35;98722.47;4916894;29;20190;-89
2022/06/07 11:49:57;;;;;;;1.67;0.60;;;;;;;31.55;32.67;98718.66;4936268;29;20178;-90
2022/06/07 11:52:28;;;;;;;1.10;0.70;;;;;;;31.46;33.62;98715.41;4936523;29;20221;-91
2022/06/07 11:59:24;;;;;;;1.30;0.45;;;;;;;31.60;34.23;98710.69;4877544;29;20191;-90
2022/06/07 12:02:14;;;;;;;1.25;0.70;;;;;;;31.84;33.13;98701.63;4826101;29;20265;-90
2022/06/07 12:04:46;;;;;;;1.23;0.68;;;;;;;31.81;33.92;98703.97;4876276;29;20225;-90
2022/06/07 12:15:35;;;;;;;3.60;0.63;;;;;;;32.39;32.09;98690.72;4946741;28;20195;-92
2022/06/07 12:21:24;;;;;;;4.35;1.05;;;;;;;32.52;32.12;98683.22;4982775;28;20219;-89
2022/06/07 12:24:38;;;;;;;0.65;0.40;;;;;;;32.53;32.71;98678.63;5005616;28;20258;-90
2022/06/07 12:27:45;;;;;;;;;;;;;;;;;;;;;
2022/06/07 12:33:33;;;;;;;1.45;0.98;;;;;;;32.44;33.96;98669.97;4994011;28;20263;-89
2022/06/07 12:37:11;;;;;;;1.13;0.60;;;;;;;32.57;33.12;98674.41;4992910;28;20196;-90
2022/06/07 12:50:55;;;;;;;1.52;0.45;;;;;;;32.83;33.09;98662.28;4914030;29;20201;-93
2022/06/07 12:55:10;;;;;;;;;;;;;;;;;;;;;
2022/06/07 12:57:17;;;;;;;2.08;0.82;;;;;;;32.78;31.24;98660.28;4848475;29;20647;-90
2022/06/07 13:04:10;;;;;;;2.22;0.77;;;;;;;32.51;31.17;98659.00;4823110;29;20280;-91
2022/06/07 13:11:03;;;;;;;0.98;0.60;;;;;;;32.33;30.49;98653.66;4811385;29;20227;-91
2022/06/07 13:13:35;;;;;;;1.48;0.50;;;;;;;32.08;30.84;98660.03;4913269;28;20194;-89
2022/06/07 13:16:37;;;;;;;1.80;0.82;;;;;;;31.88;31.28;98654.03;4955963;28;20180;-90
2022/06/07 13:19:39;;;;;;;;;;;;;;;;;;;;;
2022/06/07 13:22:23;;;;;;;2.03;0.85;;;;;;;31.71;31.28;98653.00;5052216;28;20188;-92
2022/06/07 13:29:13;;;;;;;1.45;0.70;;;;;;;31.38;32.73;98652.53;4987189;28;20560;-90
2022/06/07 13:32:42;;;;;;;;;;;;;;;;;;;;;
2022/06/07 13:35:47;;;;;;;;;;;;;;;;;;;;;
2022/06/07 13:43:00;;;;;;;1.25;0.60;;;;;;;30.45;33.16;98651.69;4893870;29;20287;-90
2022/06/07 13:46:06;;;;;;;;;;;;;;;;;;;;;
2022/06/07 14:00:10;;;;;;;;;;;;;;;;;;;;;
2022/06/07 14:03:01;;;;;;;1.20;0.70;;;;;;;30.68;33.11;98642.97;4989972;28;20197;-90
2022/06/07 14:08:45;;;;;;;2.47;0.70;;;;;;;31.12;31.43;98631.13;4895252;29;20714;-90
2022/06/07 14:11:11;;;;;;;1.48;0.77;;;;;;;31.22;33.18;98626.03;4946051;28;20195;-91
2022/06/07 14:14:02;;;;;;;1.85;1.10;;;;;;;31.11;32.81;98629.47;5051328;28;20225;-91
2022/06/07 14:16:39;;;;;;;2.00;1.17;;;;;;;30.96;32.45;98627.97;5067955;28;20569;-90
2022/06/07 14:19:29;;;;;;;2.40;0.80;;;;;;;30.70;32.94;98628.19;5073493;28;20219;-91
2022/06/07 14:21:54;;;;;;;1.98;0.82;;;;;;;30.58;32.97;98626.41;5072887;28;20610;-91